Maersk Douglas — DCPL2 — position and weather

sailwx.info

Track history (hours):
 
Tides and Currents Weather Stations Pressure Air Temp Water Temp Dewpoint Dewpoint Depression Visibility Wind Speed Wind Dir Waves Ship Positions

Maersk Douglas

Last reported at 2016-Dec-04 03:33 UTC. Time now 2016-Dec-04 04:02 UTC.
Position N 53°33' E 009°55'.

Length 294.1 m; beam 32.2 m; draft 13.7 m.

Type: Tug. MMSI: 211710650.

Date/timePositionNaut miles runAvg speedWind from/ knotsBaromVisibWave heightAir tempDewpointWater temp
2016-Dec-04 03:33N 53°33' E 009°55'0 0.0
2016-Dec-04 02:34N 53°33' E 009°55'0 0.0
2016-Dec-04 01:33N 53°33' E 009°55'1 0.9
2016-Dec-04 00:33N 53°32' E 009°55'1 1.4
2016-Dec-03 23:34N 53°32' E 009°53'2 1.7
2016-Dec-03 22:34N 53°33' E 009°50'3 2.9
2016-Dec-03 21:33N 53°33' E 009°55'0 0.0
2016-Dec-03 20:33N 53°33' E 009°55'0 0.0
2016-Dec-03 19:33N 53°33' E 009°55'0 0.2
2016-Dec-03 18:34N 53°32' E 009°55'1 0.6
2016-Dec-03 17:34N 53°32' E 009°54'5 5.3
2016-Dec-03 16:33N 53°34' E 009°45'6 6.0
2016-Dec-03 15:33N 53°33' E 009°55'0 0.0
2016-Dec-03 14:33N 53°33' E 009°55'0 0.0
2016-Dec-03 13:33N 53°33' E 009°55'0 0.0
2016-Dec-03 12:33N 53°33' E 009°55'0 0.0
2016-Dec-03 11:33N 53°33' E 009°55'0 0.0
2016-Dec-03 10:33N 53°33' E 009°55'0 0.0
2016-Dec-03 09:33N 53°33' E 009°55'0 0.0
2016-Dec-03 08:33N 53°33' E 009°55'0 0.0
2016-Dec-03 07:34N 53°33' E 009°55'0 0.0
2016-Dec-03 06:33N 53°33' E 009°55'1 0.9
2016-Dec-03 05:34N 53°32' E 009°56'2 1.7
2016-Dec-03 04:34N 53°30' E 009°58'3 2.8
2016-Dec-03 03:33N 53°33' E 009°55'0 0.5
2016-Dec-03 02:33N 53°33' E 009°55'0 0.0
2016-Dec-03 01:33N 53°33' E 009°55'0 0.0
2016-Dec-03 00:34N 53°33' E 009°55'0 0.0
2016-Dec-02 23:34N 53°33' E 009°55'0 0.0
2016-Dec-02 22:33N 53°33' E 009°55'0 0.0
2016-Dec-02 21:33N 53°33' E 009°55'0 0.0
2016-Dec-02 20:33N 53°33' E 009°55'2 1.7
2016-Dec-02 19:33N 53°31' E 009°57'2 1.8
2016-Dec-02 18:33N 53°33' E 009°55'0 0.3
2016-Dec-02 17:33N 53°33' E 009°55'0 0.0
2016-Dec-02 16:33N 53°33' E 009°55'0 0.0
2016-Dec-02 15:33N 53°33' E 009°55'0 0.0
2016-Dec-02 14:33N 53°33' E 009°55'0 0.0
2016-Dec-02 13:34N 53°33' E 009°55'0 0.0
2016-Dec-02 12:33N 53°33' E 009°55'0 0.0
2016-Dec-02 11:33N 53°33' E 009°55'0 0.0
2016-Dec-02 10:33N 53°33' E 009°55'0 0.0
2016-Dec-02 09:33N 53°33' E 009°55'0 0.0
2016-Dec-02 08:33N 53°33' E 009°55'0 0.0
2016-Dec-02 07:33N 53°33' E 009°55'0 0.0
2016-Dec-02 06:33N 53°33' E 009°55'0 0.0
2016-Dec-02 05:33N 53°33' E 009°55'1 1.1
2016-Dec-02 04:33N 53°32' E 009°54'1 1.1
2016-Dec-02 03:33N 53°33' E 009°55'0 0.0
2016-Dec-02 02:33N 53°33' E 009°55'0 0.0
2016-Dec-02 01:33N 53°33' E 009°55'0 0.0
2016-Dec-02 00:33N 53°33' E 009°55'0 0.0
2016-Dec-01 23:33N 53°33' E 009°55'0 0.0
2016-Dec-01 22:33N 53°33' E 009°55'0 0.3
2016-Dec-01 21:34N 53°32' E 009°56'2 2.4
2016-Dec-01 20:34N 53°30' E 009°57'3 3.4
2016-Dec-01 19:33N 53°33' E 009°53'1 1.3
2016-Dec-01 18:33N 53°33' E 009°50'1 1.0
2016-Dec-01 17:33N 53°33' E 009°52'1 1.3
2016-Dec-01 16:33N 53°32' E 009°54'3 2.7
2016-Dec-01 15:33N 53°33' E 009°50'5 4.6
2016-Dec-01 14:34N 53°33' E 009°57'1 0.8
2016-Dec-01 13:33N 53°32' E 009°58'0 0.0
2016-Dec-01 12:33N 53°32' E 009°58'2 2.0
2016-Dec-01 11:33N 53°33' E 009°55'0 0.0
2016-Dec-01 10:33N 53°33' E 009°55'0 0.0
2016-Dec-01 09:33N 53°33' E 009°55'0 0.0
2016-Dec-01 08:33N 53°33' E 009°55'0 0.0
2016-Dec-01 07:33N 53°33' E 009°55'0 0.0
2016-Dec-01 06:33N 53°33' E 009°55'2 1.9
2016-Dec-01 05:33N 53°33' E 009°52'2 1.9
2016-Dec-01 04:33N 53°33' E 009°55'0 0.0
2016-Dec-01 03:33N 53°33' E 009°55'0 0.0
2016-Dec-01 02:33N 53°33' E 009°55'0 0.0
2016-Dec-01 01:33N 53°33' E 009°55'0 0.0
2016-Dec-01 00:33N 53°33' E 009°55'0 0.0
2016-Nov-30 23:33N 53°33' E 009°55'0 0.0
2016-Nov-30 22:33N 53°33' E 009°55'0 0.0
2016-Nov-30 21:33N 53°33' E 009°55'0 0.0
2016-Nov-30 20:33N 53°33' E 009°55'0 0.0
2016-Nov-30 19:33N 53°33' E 009°55'0 0.0
2016-Nov-30 18:33N 53°33' E 009°55'0 0.0
2016-Nov-30 17:33N 53°33' E 009°55'0 0.2
2016-Nov-30 16:33N 53°33' E 009°56'1 1.3
2016-Nov-30 15:33N 53°31' E 009°56'2 1.9
2016-Nov-30 14:33N 53°33' E 009°54'1 0.8
2016-Nov-30 13:33N 53°33' E 009°55'0 0.0
2016-Nov-30 12:33N 53°33' E 009°55'0 0.0
2016-Nov-30 11:33N 53°33' E 009°55'0 0.0
2016-Nov-30 10:33N 53°33' E 009°55'0 0.0
2016-Nov-30 09:33N 53°33' E 009°55'0 0.0
2016-Nov-30 08:33N 53°33' E 009°55'0 0.0
2016-Nov-30 07:33N 53°33' E 009°55'0 0.0
2016-Nov-30 06:33N 53°33' E 009°55'0 0.0
2016-Nov-30 05:33N 53°33' E 009°55'0 0.0
2016-Nov-30 04:33N 53°33' E 009°55'0 0.2
2016-Nov-30 03:33N 53°33' E 009°55'3 3.4
2016-Nov-30 02:33N 53°29' E 009°57'3 3.4
2016-Nov-30 01:33N 53°33' E 009°55'0 0.0
2016-Nov-30 00:33N 53°33' E 009°55'0 0.0
2016-Nov-29 23:33N 53°33' E 009°55'0 0.3
2016-Nov-29 22:33N 53°32' E 009°55'2 2.3
2016-Nov-29 21:33N 53°30' E 009°56'2 2.3
2016-Nov-29 20:34N 53°33' E 009°55'0 0.0
2016-Nov-29 19:33N 53°33' E 009°55'0 0.0
2016-Nov-29 18:33N 53°33' E 009°55'3 2.7
2016-Nov-29 17:33N 53°30' E 009°58'3 2.7
2016-Nov-29 16:33N 53°33' E 009°55'0 0.0
2016-Nov-29 15:33N 53°33' E 009°55'0 0.0
2016-Nov-29 14:33N 53°33' E 009°55'0 0.0
2016-Nov-29 13:33N 53°33' E 009°55'0 0.0
2016-Nov-29 12:33N 53°33' E 009°55'0 0.0
2016-Nov-29 11:33N 53°33' E 009°55'0 0.0
2016-Nov-29 10:33N 53°33' E 009°55'0 0.0
2016-Nov-29 09:33N 53°33' E 009°55'0 0.0
2016-Nov-29 08:33N 53°33' E 009°55'0 0.0
2016-Nov-29 07:33N 53°33' E 009°55'1 0.8
2016-Nov-29 06:33N 53°32' E 009°55'1 0.8
2016-Nov-29 05:33N 53°33' E 009°55'0 0.0
2016-Nov-29 04:33N 53°33' E 009°55'0 0.0
2016-Nov-29 03:33N 53°33' E 009°55'0 0.0
2016-Nov-29 02:33N 53°33' E 009°55'0 0.0
2016-Nov-29 01:33N 53°33' E 009°55'0 0.0
2016-Nov-29 00:33N 53°33' E 009°55'0 0.0
2016-Nov-28 23:33N 53°33' E 009°55'0 0.0
2016-Nov-28 22:33N 53°33' E 009°55'0 0.0
2016-Nov-28 21:33N 53°33' E 009°55'0 0.0
2016-Nov-28 20:33N 53°33' E 009°55'0 0.0
2016-Nov-28 19:33N 53°33' E 009°55'0 0.0
2016-Nov-28 18:33N 53°33' E 009°55'0 0.0
2016-Nov-28 17:33N 53°33' E 009°55'0 0.0
2016-Nov-28 16:33N 53°33' E 009°55'0 0.0
2016-Nov-28 15:33N 53°33' E 009°55'4 4.4
2016-Nov-28 14:33N 53°28' E 009°58'4 3.8
2016-Nov-28 13:33N 53°32' E 009°56'1 0.7
2016-Nov-28 12:33N 53°33' E 009°55'0 0.0
2016-Nov-28 11:33N 53°33' E 009°55'0 0.0
2016-Nov-28 10:33N 53°33' E 009°55'0 0.0
2016-Nov-28 09:33N 53°33' E 009°55'0 0.0
2016-Nov-28 08:33N 53°33' E 009°55'0 0.0
2016-Nov-28 07:33N 53°33' E 009°55'0 0.0
2016-Nov-28 06:33N 53°33' E 009°55'0 0.0
2016-Nov-28 05:33N 53°33' E 009°55'0 0.0
2016-Nov-28 04:33N 53°33' E 009°55'0 0.0
2016-Nov-28 03:33N 53°33' E 009°55'2 1.7
2016-Nov-28 02:33N 53°31' E 009°56'3 2.8
2016-Nov-28 01:33N 53°33' E 009°52'2 1.8
2016-Nov-28 00:33N 53°33' E 009°55'0 0.0
2016-Nov-27 23:33N 53°33' E 009°55'0 0.0
2016-Nov-27 22:33N 53°33' E 009°55'0 0.0
2016-Nov-27 21:33N 53°33' E 009°55'0 0.0
2016-Nov-27 20:34N 53°33' E 009°55'0 0.0
2016-Nov-27 19:34N 53°33' E 009°55'0 0.0
2016-Nov-27 18:33N 53°33' E 009°55'1 0.8
2016-Nov-27 17:33N 53°32' E 009°55'3 2.7
2016-Nov-27 16:33N 53°33' E 009°50'3 2.9
2016-Nov-27 15:33N 53°33' E 009°55'0 0.0
2016-Nov-27 14:33N 53°33' E 009°55'0 0.0
2016-Nov-27 13:33N 53°33' E 009°55'0 0.0
2016-Nov-27 12:33N 53°33' E 009°55'0 0.0
2016-Nov-27 11:33N 53°33' E 009°55'0 0.0
2016-Nov-27 10:33N 53°33' E 009°55'0 0.0
2016-Nov-27 09:33N 53°33' E 009°55'0 0.0
2016-Nov-27 08:33N 53°33' E 009°55'0 0.0
2016-Nov-27 07:33N 53°33' E 009°55'0 0.0
2016-Nov-27 06:33N 53°33' E 009°55'1 0.7
2016-Nov-27 05:34N 53°32' E 009°55'1 0.7
2016-Nov-27 04:33N 53°33' E 009°55'0 0.0
2016-Nov-27 03:33N 53°33' E 009°55'0 0.0
2016-Nov-27 02:33N 53°33' E 009°55'4 4.2
2016-Nov-27 01:33N 53°29' E 009°58'4 3.9
2016-Nov-27 00:34N 53°32' E 009°56'3 2.6
2016-Nov-26 23:33N 53°32' E 010°00'3 2.9
2016-Nov-26 22:33N 53°33' E 009°55'0 0.0
2016-Nov-26 21:33N 53°33' E 009°55'0 0.0
2016-Nov-26 20:33N 53°33' E 009°55'0 0.0
2016-Nov-26 19:33N 53°33' E 009°55'0 0.0
2016-Nov-26 18:33N 53°33' E 009°55'0 0.0
2016-Nov-26 17:33N 53°33' E 009°55'0 0.0
2016-Nov-26 16:33N 53°33' E 009°55'0 0.0
2016-Nov-26 15:33N 53°33' E 009°55'0 0.0
2016-Nov-26 14:33N 53°33' E 009°55'0 0.0
2016-Nov-26 13:33N 53°33' E 009°55'0 0.0
2016-Nov-26 12:33N 53°33' E 009°55'0 0.0
2016-Nov-26 11:33N 53°33' E 009°55'1 1.3
2016-Nov-26 10:33N 53°32' E 009°53'1 1.3
2016-Nov-26 09:33N 53°33' E 009°55'0 0.0
2016-Nov-26 08:33N 53°33' E 009°55'0 0.0
2016-Nov-26 07:33N 53°33' E 009°55'0 0.0
2016-Nov-26 06:33N 53°33' E 009°55'0 0.0
2016-Nov-26 05:33N 53°33' E 009°55'0 0.0
2016-Nov-26 04:33N 53°33' E 009°55'0 0.0
2016-Nov-26 03:33N 53°33' E 009°55'0 0.0
2016-Nov-26 02:33N 53°33' E 009°55'1 0.7
2016-Nov-26 01:33N 53°32' E 009°55'2 2.4
2016-Nov-26 00:33N 53°33' E 009°51'2 2.5
2016-Nov-25 23:33N 53°33' E 009°55'0 0.0
2016-Nov-25 22:33N 53°33' E 009°55'0 0.0
2016-Nov-25 21:34N 53°33' E 009°55'0 0.0
2016-Nov-25 20:34N 53°33' E 009°55'0 0.0
2016-Nov-25 19:33N 53°33' E 009°55'0 0.0
2016-Nov-25 18:33N 53°33' E 009°55'0 0.0
2016-Nov-25 17:33N 53°33' E 009°55'0 0.0
2016-Nov-25 16:33N 53°33' E 009°55'0 0.0
2016-Nov-25 15:33N 53°33' E 009°55'0 0.0
2016-Nov-25 14:33N 53°33' E 009°55'3 2.6
2016-Nov-25 13:33N 53°30' E 009°57'5 4.6
2016-Nov-25 12:33N 53°33' E 009°51'3 2.7
2016-Nov-25 11:33N 53°33' E 009°55'0 0.0
2016-Nov-25 10:33N 53°33' E 009°55'0 0.0
2016-Nov-25 09:33N 53°33' E 009°55'0 0.0
2016-Nov-25 08:33N 53°33' E 009°55'0 0.0
2016-Nov-25 07:33N 53°33' E 009°55'0 0.0
2016-Nov-25 06:33N 53°33' E 009°55'1 1.4
2016-Nov-25 05:33N 53°33' E 009°53'1 1.4
2016-Nov-25 04:33N 53°33' E 009°55'0 0.0
2016-Nov-25 03:33N 53°33' E 009°55'0 0.0
2016-Nov-25 02:33N 53°33' E 009°55'0 0.0
2016-Nov-25 01:33N 53°33' E 009°55'0 0.0
2016-Nov-25 00:33N 53°33' E 009°55'0 0.0
2016-Nov-24 23:33N 53°33' E 009°55'0 0.0
2016-Nov-24 22:33N 53°33' E 009°55'0 0.0
2016-Nov-24 21:33N 53°33' E 009°55'0 0.0
2016-Nov-24 20:33N 53°33' E 009°55'0 0.0
2016-Nov-24 19:33N 53°33' E 009°55'0 0.0
2016-Nov-24 18:33N 53°33' E 009°55'0 0.0
2016-Nov-24 17:33N 53°33' E 009°55'0 0.0
2016-Nov-24 16:33N 53°33' E 009°55'0 0.0
2016-Nov-24 15:33N 53°33' E 009°55'0 0.0
2016-Nov-24 14:33N 53°33' E 009°55'0 0.0
2016-Nov-24 13:33N 53°33' E 009°55'1 0.8
2016-Nov-24 12:33N 53°32' E 009°55'1 1.1
2016-Nov-24 11:34N 53°32' E 009°54'6 6.1
2016-Nov-24 10:33N 53°34' E 009°43'7 7.2
2016-Nov-24 09:34N 53°33' E 009°55'0 0.0
2016-Nov-24 08:33N 53°33' E 009°55'0 0.0
2016-Nov-24 07:33N 53°33' E 009°55'0 0.0
2016-Nov-24 06:33N 53°33' E 009°55'2 2.3
2016-Nov-24 05:33N 53°33' E 009°51'2 2.3
2016-Nov-24 04:33N 53°32' E 009°55'1 0.8
2016-Nov-24 03:33N 53°33' E 009°55'  
Track history (hours):
 
Tides and Currents Weather Stations Pressure Air Temp Water Temp Dewpoint Dewpoint Depression Visibility Wind Speed Wind Dir Waves Ship Positions

Maersk Douglas

Last reported at 2016-Dec-04 03:33 UTC. Time now 2016-Dec-04 04:02 UTC.
Position N 53°33' E 009°55'.

Length 294.1 m; beam 32.2 m; draft 13.7 m.

Type: Tug. MMSI: 211710650.

Date/timePositionNaut miles runAvg speedWind from/ knotsBaromVisibWave heightAir tempDewpointWater temp
2016-Dec-04 03:33N 53°33' E 009°55'0 0.0
2016-Dec-04 02:34N 53°33' E 009°55'0 0.0
2016-Dec-04 01:33N 53°33' E 009°55'1 0.9
2016-Dec-04 00:33N 53°32' E 009°55'1 1.4
2016-Dec-03 23:34N 53°32' E 009°53'2 1.7
2016-Dec-03 22:34N 53°33' E 009°50'3 2.9
2016-Dec-03 21:33N 53°33' E 009°55'0 0.0
2016-Dec-03 20:33N 53°33' E 009°55'0 0.0
2016-Dec-03 19:33N 53°33' E 009°55'0 0.2
2016-Dec-03 18:34N 53°32' E 009°55'1 0.6
2016-Dec-03 17:34N 53°32' E 009°54'5 5.3
2016-Dec-03 16:33N 53°34' E 009°45'6 6.0
2016-Dec-03 15:33N 53°33' E 009°55'0 0.0
2016-Dec-03 14:33N 53°33' E 009°55'0 0.0
2016-Dec-03 13:33N 53°33' E 009°55'0 0.0
2016-Dec-03 12:33N 53°33' E 009°55'0 0.0
2016-Dec-03 11:33N 53°33' E 009°55'0 0.0
2016-Dec-03 10:33N 53°33' E 009°55'0 0.0
2016-Dec-03 09:33N 53°33' E 009°55'0 0.0
2016-Dec-03 08:33N 53°33' E 009°55'0 0.0
2016-Dec-03 07:34N 53°33' E 009°55'0 0.0
2016-Dec-03 06:33N 53°33' E 009°55'1 0.9
2016-Dec-03 05:34N 53°32' E 009°56'2 1.7
2016-Dec-03 04:34N 53°30' E 009°58'3 2.8
2016-Dec-03 03:33N 53°33' E 009°55'0 0.5
2016-Dec-03 02:33N 53°33' E 009°55'0 0.0
2016-Dec-03 01:33N 53°33' E 009°55'0 0.0
2016-Dec-03 00:34N 53°33' E 009°55'0 0.0
2016-Dec-02 23:34N 53°33' E 009°55'0 0.0
2016-Dec-02 22:33N 53°33' E 009°55'0 0.0
2016-Dec-02 21:33N 53°33' E 009°55'0 0.0
2016-Dec-02 20:33N 53°33' E 009°55'2 1.7
2016-Dec-02 19:33N 53°31' E 009°57'2 1.8
2016-Dec-02 18:33N 53°33' E 009°55'0 0.3
2016-Dec-02 17:33N 53°33' E 009°55'0 0.0
2016-Dec-02 16:33N 53°33' E 009°55'0 0.0
2016-Dec-02 15:33N 53°33' E 009°55'0 0.0
2016-Dec-02 14:33N 53°33' E 009°55'0 0.0
2016-Dec-02 13:34N 53°33' E 009°55'0 0.0
2016-Dec-02 12:33N 53°33' E 009°55'0 0.0
2016-Dec-02 11:33N 53°33' E 009°55'0 0.0
2016-Dec-02 10:33N 53°33' E 009°55'0 0.0
2016-Dec-02 09:33N 53°33' E 009°55'0 0.0
2016-Dec-02 08:33N 53°33' E 009°55'0 0.0
2016-Dec-02 07:33N 53°33' E 009°55'0 0.0
2016-Dec-02 06:33N 53°33' E 009°55'0 0.0
2016-Dec-02 05:33N 53°33' E 009°55'1 1.1
2016-Dec-02 04:33N 53°32' E 009°54'1 1.1
2016-Dec-02 03:33N 53°33' E 009°55'0 0.0
2016-Dec-02 02:33N 53°33' E 009°55'0 0.0
2016-Dec-02 01:33N 53°33' E 009°55'0 0.0
2016-Dec-02 00:33N 53°33' E 009°55'0 0.0
2016-Dec-01 23:33N 53°33' E 009°55'0 0.0
2016-Dec-01 22:33N 53°33' E 009°55'0 0.3
2016-Dec-01 21:34N 53°32' E 009°56'2 2.4
2016-Dec-01 20:34N 53°30' E 009°57'3 3.4
2016-Dec-01 19:33N 53°33' E 009°53'1 1.3
2016-Dec-01 18:33N 53°33' E 009°50'1 1.0
2016-Dec-01 17:33N 53°33' E 009°52'1 1.3
2016-Dec-01 16:33N 53°32' E 009°54'3 2.7
2016-Dec-01 15:33N 53°33' E 009°50'5 4.6
2016-Dec-01 14:34N 53°33' E 009°57'1 0.8
2016-Dec-01 13:33N 53°32' E 009°58'0 0.0
2016-Dec-01 12:33N 53°32' E 009°58'2 2.0
2016-Dec-01 11:33N 53°33' E 009°55'0 0.0
2016-Dec-01 10:33N 53°33' E 009°55'0 0.0
2016-Dec-01 09:33N 53°33' E 009°55'0 0.0
2016-Dec-01 08:33N 53°33' E 009°55'0 0.0
2016-Dec-01 07:33N 53°33' E 009°55'0 0.0
2016-Dec-01 06:33N 53°33' E 009°55'2 1.9
2016-Dec-01 05:33N 53°33' E 009°52'2 1.9
2016-Dec-01 04:33N 53°33' E 009°55'0 0.0
2016-Dec-01 03:33N 53°33' E 009°55'0 0.0
2016-Dec-01 02:33N 53°33' E 009°55'0 0.0
2016-Dec-01 01:33N 53°33' E 009°55'0 0.0
2016-Dec-01 00:33N 53°33' E 009°55'0 0.0
2016-Nov-30 23:33N 53°33' E 009°55'0 0.0
2016-Nov-30 22:33N 53°33' E 009°55'0 0.0
2016-Nov-30 21:33N 53°33' E 009°55'0 0.0
2016-Nov-30 20:33N 53°33' E 009°55'0 0.0
2016-Nov-30 19:33N 53°33' E 009°55'0 0.0
2016-Nov-30 18:33N 53°33' E 009°55'0 0.0
2016-Nov-30 17:33N 53°33' E 009°55'0 0.2
2016-Nov-30 16:33N 53°33' E 009°56'1 1.3
2016-Nov-30 15:33N 53°31' E 009°56'2 1.9
2016-Nov-30 14:33N 53°33' E 009°54'1 0.8
2016-Nov-30 13:33N 53°33' E 009°55'0 0.0
2016-Nov-30 12:33N 53°33' E 009°55'0 0.0
2016-Nov-30 11:33N 53°33' E 009°55'0 0.0
2016-Nov-30 10:33N 53°33' E 009°55'0 0.0
2016-Nov-30 09:33N 53°33' E 009°55'0 0.0
2016-Nov-30 08:33N 53°33' E 009°55'0 0.0
2016-Nov-30 07:33N 53°33' E 009°55'0 0.0
2016-Nov-30 06:33N 53°33' E 009°55'0 0.0
2016-Nov-30 05:33N 53°33' E 009°55'0 0.0
2016-Nov-30 04:33N 53°33' E 009°55'0 0.2
2016-Nov-30 03:33N 53°33' E 009°55'3 3.4
2016-Nov-30 02:33N 53°29' E 009°57'3 3.4
2016-Nov-30 01:33N 53°33' E 009°55'0 0.0
2016-Nov-30 00:33N 53°33' E 009°55'0 0.0
2016-Nov-29 23:33N 53°33' E 009°55'0 0.3
2016-Nov-29 22:33N 53°32' E 009°55'2 2.3
2016-Nov-29 21:33N 53°30' E 009°56'2 2.3
2016-Nov-29 20:34N 53°33' E 009°55'0 0.0
2016-Nov-29 19:33N 53°33' E 009°55'0 0.0
2016-Nov-29 18:33N 53°33' E 009°55'3 2.7
2016-Nov-29 17:33N 53°30' E 009°58'3 2.7
2016-Nov-29 16:33N 53°33' E 009°55'0 0.0
2016-Nov-29 15:33N 53°33' E 009°55'0 0.0
2016-Nov-29 14:33N 53°33' E 009°55'0 0.0
2016-Nov-29 13:33N 53°33' E 009°55'0 0.0
2016-Nov-29 12:33N 53°33' E 009°55'0 0.0
2016-Nov-29 11:33N 53°33' E 009°55'0 0.0
2016-Nov-29 10:33N 53°33' E 009°55'0 0.0
2016-Nov-29 09:33N 53°33' E 009°55'0 0.0
2016-Nov-29 08:33N 53°33' E 009°55'0 0.0
2016-Nov-29 07:33N 53°33' E 009°55'1 0.8
2016-Nov-29 06:33N 53°32' E 009°55'1 0.8
2016-Nov-29 05:33N 53°33' E 009°55'0 0.0
2016-Nov-29 04:33N 53°33' E 009°55'0 0.0
2016-Nov-29 03:33N 53°33' E 009°55'0 0.0
2016-Nov-29 02:33N 53°33' E 009°55'0 0.0
2016-Nov-29 01:33N 53°33' E 009°55'0 0.0
2016-Nov-29 00:33N 53°33' E 009°55'0 0.0
2016-Nov-28 23:33N 53°33' E 009°55'0 0.0
2016-Nov-28 22:33N 53°33' E 009°55'0 0.0
2016-Nov-28 21:33N 53°33' E 009°55'0 0.0
2016-Nov-28 20:33N 53°33' E 009°55'0 0.0
2016-Nov-28 19:33N 53°33' E 009°55'0 0.0
2016-Nov-28 18:33N 53°33' E 009°55'0 0.0
2016-Nov-28 17:33N 53°33' E 009°55'0 0.0
2016-Nov-28 16:33N 53°33' E 009°55'0 0.0
2016-Nov-28 15:33N 53°33' E 009°55'4 4.4
2016-Nov-28 14:33N 53°28' E 009°58'4 3.8
2016-Nov-28 13:33N 53°32' E 009°56'1 0.7
2016-Nov-28 12:33N 53°33' E 009°55'0 0.0
2016-Nov-28 11:33N 53°33' E 009°55'0 0.0
2016-Nov-28 10:33N 53°33' E 009°55'0 0.0
2016-Nov-28 09:33N 53°33' E 009°55'0 0.0
2016-Nov-28 08:33N 53°33' E 009°55'0 0.0
2016-Nov-28 07:33N 53°33' E 009°55'0 0.0
2016-Nov-28 06:33N 53°33' E 009°55'0 0.0
2016-Nov-28 05:33N 53°33' E 009°55'0 0.0
2016-Nov-28 04:33N 53°33' E 009°55'0 0.0
2016-Nov-28 03:33N 53°33' E 009°55'2 1.7
2016-Nov-28 02:33N 53°31' E 009°56'3 2.8
2016-Nov-28 01:33N 53°33' E 009°52'2 1.8
2016-Nov-28 00:33N 53°33' E 009°55'0 0.0
2016-Nov-27 23:33N 53°33' E 009°55'0 0.0
2016-Nov-27 22:33N 53°33' E 009°55'0 0.0
2016-Nov-27 21:33N 53°33' E 009°55'0 0.0
2016-Nov-27 20:34N 53°33' E 009°55'0 0.0
2016-Nov-27 19:34N 53°33' E 009°55'0 0.0
2016-Nov-27 18:33N 53°33' E 009°55'1 0.8
2016-Nov-27 17:33N 53°32' E 009°55'3 2.7
2016-Nov-27 16:33N 53°33' E 009°50'3 2.9
2016-Nov-27 15:33N 53°33' E 009°55'0 0.0
2016-Nov-27 14:33N 53°33' E 009°55'0 0.0
2016-Nov-27 13:33N 53°33' E 009°55'0 0.0
2016-Nov-27 12:33N 53°33' E 009°55'0 0.0
2016-Nov-27 11:33N 53°33' E 009°55'0 0.0
2016-Nov-27 10:33N 53°33' E 009°55'0 0.0
2016-Nov-27 09:33N 53°33' E 009°55'0 0.0
2016-Nov-27 08:33N 53°33' E 009°55'0 0.0
2016-Nov-27 07:33N 53°33' E 009°55'0 0.0
2016-Nov-27 06:33N 53°33' E 009°55'1 0.7
2016-Nov-27 05:34N 53°32' E 009°55'1 0.7
2016-Nov-27 04:33N 53°33' E 009°55'0 0.0
2016-Nov-27 03:33N 53°33' E 009°55'0 0.0
2016-Nov-27 02:33N 53°33' E 009°55'4 4.2
2016-Nov-27 01:33N 53°29' E 009°58'4 3.9
2016-Nov-27 00:34N 53°32' E 009°56'3 2.6
2016-Nov-26 23:33N 53°32' E 010°00'3 2.9
2016-Nov-26 22:33N 53°33' E 009°55'0 0.0
2016-Nov-26 21:33N 53°33' E 009°55'0 0.0
2016-Nov-26 20:33N 53°33' E 009°55'0 0.0
2016-Nov-26 19:33N 53°33' E 009°55'0 0.0
2016-Nov-26 18:33N 53°33' E 009°55'0 0.0
2016-Nov-26 17:33N 53°33' E 009°55'0 0.0
2016-Nov-26 16:33N 53°33' E 009°55'0 0.0
2016-Nov-26 15:33N 53°33' E 009°55'0 0.0
2016-Nov-26 14:33N 53°33' E 009°55'0 0.0
2016-Nov-26 13:33N 53°33' E 009°55'0 0.0
2016-Nov-26 12:33N 53°33' E 009°55'0 0.0
2016-Nov-26 11:33N 53°33' E 009°55'1 1.3
2016-Nov-26 10:33N 53°32' E 009°53'1 1.3
2016-Nov-26 09:33N 53°33' E 009°55'0 0.0
2016-Nov-26 08:33N 53°33' E 009°55'0 0.0
2016-Nov-26 07:33N 53°33' E 009°55'0 0.0
2016-Nov-26 06:33N 53°33' E 009°55'0 0.0
2016-Nov-26 05:33N 53°33' E 009°55'0 0.0
2016-Nov-26 04:33N 53°33' E 009°55'0 0.0
2016-Nov-26 03:33N 53°33' E 009°55'0 0.0
2016-Nov-26 02:33N 53°33' E 009°55'1 0.7
2016-Nov-26 01:33N 53°32' E 009°55'2 2.4
2016-Nov-26 00:33N 53°33' E 009°51'2 2.5
2016-Nov-25 23:33N 53°33' E 009°55'0 0.0
2016-Nov-25 22:33N 53°33' E 009°55'0 0.0
2016-Nov-25 21:34N 53°33' E 009°55'0 0.0
2016-Nov-25 20:34N 53°33' E 009°55'0 0.0
2016-Nov-25 19:33N 53°33' E 009°55'0 0.0
2016-Nov-25 18:33N 53°33' E 009°55'0 0.0
2016-Nov-25 17:33N 53°33' E 009°55'0 0.0
2016-Nov-25 16:33N 53°33' E 009°55'0 0.0
2016-Nov-25 15:33N 53°33' E 009°55'0 0.0
2016-Nov-25 14:33N 53°33' E 009°55'3 2.6
2016-Nov-25 13:33N 53°30' E 009°57'5 4.6
2016-Nov-25 12:33N 53°33' E 009°51'3 2.7
2016-Nov-25 11:33N 53°33' E 009°55'0 0.0
2016-Nov-25 10:33N 53°33' E 009°55'0 0.0
2016-Nov-25 09:33N 53°33' E 009°55'0 0.0
2016-Nov-25 08:33N 53°33' E 009°55'0 0.0
2016-Nov-25 07:33N 53°33' E 009°55'0 0.0
2016-Nov-25 06:33N 53°33' E 009°55'1 1.4
2016-Nov-25 05:33N 53°33' E 009°53'1 1.4
2016-Nov-25 04:33N 53°33' E 009°55'0 0.0
2016-Nov-25 03:33N 53°33' E 009°55'0 0.0
2016-Nov-25 02:33N 53°33' E 009°55'0 0.0
2016-Nov-25 01:33N 53°33' E 009°55'0 0.0
2016-Nov-25 00:33N 53°33' E 009°55'0 0.0
2016-Nov-24 23:33N 53°33' E 009°55'0 0.0
2016-Nov-24 22:33N 53°33' E 009°55'0 0.0
2016-Nov-24 21:33N 53°33' E 009°55'0 0.0
2016-Nov-24 20:33N 53°33' E 009°55'0 0.0
2016-Nov-24 19:33N 53°33' E 009°55'0 0.0
2016-Nov-24 18:33N 53°33' E 009°55'0 0.0
2016-Nov-24 17:33N 53°33' E 009°55'0 0.0
2016-Nov-24 16:33N 53°33' E 009°55'0 0.0
2016-Nov-24 15:33N 53°33' E 009°55'0 0.0
2016-Nov-24 14:33N 53°33' E 009°55'0 0.0
2016-Nov-24 13:33N 53°33' E 009°55'1 0.8
2016-Nov-24 12:33N 53°32' E 009°55'1 1.1
2016-Nov-24 11:34N 53°32' E 009°54'6 6.1
2016-Nov-24 10:33N 53°34' E 009°43'7 7.2
2016-Nov-24 09:34N 53°33' E 009°55'0 0.0
2016-Nov-24 08:33N 53°33' E 009°55'0 0.0
2016-Nov-24 07:33N 53°33' E 009°55'0 0.0
2016-Nov-24 06:33N 53°33' E 009°55'2 2.3
2016-Nov-24 05:33N 53°33' E 009°51'2 2.3
2016-Nov-24 04:33N 53°32' E 009°55'1 0.8
2016-Nov-24 03:33N 53°33' E 009°55'  

Dump ship's entire track history